sensor_id;sensor_type;location;lat;lon;timestamp;P1;durP1;ratioP1;P2;durP2;ratioP2
41719;SDS011;27405;53.316;-6.294;2023-08-24T00:02:25;13.52;;;2.83;;
41719;SDS011;27405;53.316;-6.294;2023-08-24T00:04:52;13.65;;;2.75;;
41719;SDS011;27405;53.316;-6.294;2023-08-24T00:07:21;13.55;;;2.80;;
41719;SDS011;27405;53.316;-6.294;2023-08-24T00:09:47;9.45;;;2.83;;
41719;SDS011;27405;53.316;-6.294;2023-08-24T00:12:13;13.48;;;3.13;;
41719;SDS011;27405;53.316;-6.294;2023-08-24T00:14:39;11.18;;;2.80;;
41719;SDS011;27405;53.316;-6.294;2023-08-24T00:17:05;11.70;;;2.85;;
41719;SDS011;27405;53.316;-6.294;2023-08-24T00:19:31;11.18;;;2.65;;
41719;SDS011;27405;53.316;-6.294;2023-08-24T00:21:57;13.88;;;2.97;;
41719;SDS011;27405;53.316;-6.294;2023-08-24T00:24:23;14.32;;;2.90;;
41719;SDS011;27405;53.316;-6.294;2023-08-24T00:26:49;13.55;;;2.67;;
41719;SDS011;27405;53.316;-6.294;2023-08-24T00:29:15;8.98;;;2.55;;
41719;SDS011;27405;53.316;-6.294;2023-08-24T00:31:41;13.50;;;2.80;;
41719;SDS011;27405;53.316;-6.294;2023-08-24T00:34:07;12.25;;;2.83;;
41719;SDS011;27405;53.316;-6.294;2023-08-24T00:36:33;16.35;;;3.35;;
41719;SDS011;27405;53.316;-6.294;2023-08-24T00:38:59;13.85;;;3.08;;
41719;SDS011;27405;53.316;-6.294;2023-08-24T00:41:25;14.10;;;2.70;;
41719;SDS011;27405;53.316;-6.294;2023-08-24T00:43:52;15.05;;;3.00;;
41719;SDS011;27405;53.316;-6.294;2023-08-24T00:46:18;13.55;;;2.90;;
41719;SDS011;27405;53.316;-6.294;2023-08-24T00:48:45;13.10;;;2.95;;
41719;SDS011;27405;53.316;-6.294;2023-08-24T00:51:12;12.80;;;2.75;;
41719;SDS011;27405;53.316;-6.294;2023-08-24T00:53:38;13.95;;;3.17;;
41719;SDS011;27405;53.316;-6.294;2023-08-24T00:56:04;14.43;;;3.20;;
41719;SDS011;27405;53.316;-6.294;2023-08-24T01:01:52;12.88;;;3.58;;
41719;SDS011;27405;53.316;-6.294;2023-08-24T01:04:19;9.43;;;2.78;;
41719;SDS011;27405;53.316;-6.294;2023-08-24T01:06:46;15.27;;;3.15;;
41719;SDS011;27405;53.316;-6.294;2023-08-24T01:09:12;10.45;;;3.08;;
41719;SDS011;27405;53.316;-6.294;2023-08-24T01:17:11;11.98;;;2.55;;
41719;SDS011;27405;53.316;-6.294;2023-08-24T01:19:42;12.65;;;2.92;;
41719;SDS011;27405;53.316;-6.294;2023-08-24T01:24:54;9.23;;;2.80;;
41719;SDS011;27405;53.316;-6.294;2023-08-24T01:27:33;16.33;;;3.47;;
41719;SDS011;27405;53.316;-6.294;2023-08-24T01:30:04;15.27;;;2.83;;
41719;SDS011;27405;53.316;-6.294;2023-08-24T01:32:31;10.82;;;2.60;;
41719;SDS011;27405;53.316;-6.294;2023-08-24T01:35:01;9.93;;;2.65;;
41719;SDS011;27405;53.316;-6.294;2023-08-24T01:37:30;12.43;;;2.72;;
41719;SDS011;27405;53.316;-6.294;2023-08-24T01:40:20;12.35;;;2.50;;
41719;SDS011;27405;53.316;-6.294;2023-08-24T01:42:51;11.45;;;2.78;;
41719;SDS011;27405;53.316;-6.294;2023-08-24T01:45:22;11.00;;;2.45;;
41719;SDS011;27405;53.316;-6.294;2023-08-24T01:47:52;12.65;;;2.60;;
41719;SDS011;27405;53.316;-6.294;2023-08-24T01:50:21;16.52;;;2.67;;
41719;SDS011;27405;53.316;-6.294;2023-08-24T01:52:48;12.90;;;2.67;;
41719;SDS011;27405;53.316;-6.294;2023-08-24T01:55:15;10.77;;;2.50;;
41719;SDS011;27405;53.316;-6.294;2023-08-24T01:57:43;9.43;;;2.35;;
41719;SDS011;27405;53.316;-6.294;2023-08-24T02:00:09;11.85;;;2.65;;
41719;SDS011;27405;53.316;-6.294;2023-08-24T02:02:36;10.80;;;2.50;;
41719;SDS011;27405;53.316;-6.294;2023-08-24T02:05:02;12.93;;;2.70;;
41719;SDS011;27405;53.316;-6.294;2023-08-24T02:07:28;9.88;;;2.58;;
41719;SDS011;27405;53.316;-6.294;2023-08-24T02:09:54;11.65;;;2.75;;
41719;SDS011;27405;53.316;-6.294;2023-08-24T02:12:20;8.30;;;2.40;;
41719;SDS011;27405;53.316;-6.294;2023-08-24T02:14:46;11.90;;;2.80;;
41719;SDS011;27405;53.316;-6.294;2023-08-24T02:17:12;11.82;;;3.10;;
41719;SDS011;27405;53.316;-6.294;2023-08-24T02:19:39;12.85;;;2.80;;
41719;SDS011;27405;53.316;-6.294;2023-08-24T02:22:08;13.95;;;5.32;;
41719;SDS011;27405;53.316;-6.294;2023-08-24T02:27:56;17.25;;;4.68;;
41719;SDS011;27405;53.316;-6.294;2023-08-24T02:30:22;13.75;;;3.67;;
41719;SDS011;27405;53.316;-6.294;2023-08-24T02:32:48;16.17;;;3.10;;
41719;SDS011;27405;53.316;-6.294;2023-08-24T02:35:14;11.48;;;2.85;;
41719;SDS011;27405;53.316;-6.294;2023-08-24T02:37:40;12.02;;;2.78;;
41719;SDS011;27405;53.316;-6.294;2023-08-24T02:40:06;11.00;;;2.60;;
41719;SDS011;27405;53.316;-6.294;2023-08-24T02:42:34;14.82;;;2.72;;
41719;SDS011;27405;53.316;-6.294;2023-08-24T02:45:01;11.63;;;3.05;;
41719;SDS011;27405;53.316;-6.294;2023-08-24T02:47:27;13.13;;;3.28;;
41719;SDS011;27405;53.316;-6.294;2023-08-24T02:49:53;9.05;;;2.92;;
41719;SDS011;27405;53.316;-6.294;2023-08-24T02:52:19;9.25;;;2.45;;
41719;SDS011;27405;53.316;-6.294;2023-08-24T02:58:07;7.55;;;2.70;;
41719;SDS011;27405;53.316;-6.294;2023-08-24T03:00:33;8.55;;;2.35;;
41719;SDS011;27405;53.316;-6.294;2023-08-24T03:02:59;11.07;;;2.65;;
41719;SDS011;27405;53.316;-6.294;2023-08-24T03:05:25;9.75;;;2.75;;
41719;SDS011;27405;53.316;-6.294;2023-08-24T03:07:51;10.10;;;2.60;;
41719;SDS011;27405;53.316;-6.294;2023-08-24T03:10:17;9.85;;;2.38;;
41719;SDS011;27405;53.316;-6.294;2023-08-24T03:12:43;11.52;;;2.88;;
41719;SDS011;27405;53.316;-6.294;2023-08-24T03:15:09;14.52;;;3.40;;
41719;SDS011;27405;53.316;-6.294;2023-08-24T03:17:35;12.23;;;2.80;;
41719;SDS011;27405;53.316;-6.294;2023-08-24T03:23:23;8.00;;;2.80;;
41719;SDS011;27405;53.316;-6.294;2023-08-24T03:25:49;9.77;;;2.78;;
41719;SDS011;27405;53.316;-6.294;2023-08-24T03:28:15;12.55;;;2.60;;
41719;SDS011;27405;53.316;-6.294;2023-08-24T03:30:51;9.07;;;2.63;;
41719;SDS011;27405;53.316;-6.294;2023-08-24T03:33:17;12.25;;;3.22;;
41719;SDS011;27405;53.316;-6.294;2023-08-24T03:35:44;10.57;;;2.17;;
41719;SDS011;27405;53.316;-6.294;2023-08-24T03:38:10;9.38;;;2.30;;
41719;SDS011;27405;53.316;-6.294;2023-08-24T03:40:36;12.07;;;2.75;;
41719;SDS011;27405;53.316;-6.294;2023-08-24T03:43:02;9.57;;;2.38;;
41719;SDS011;27405;53.316;-6.294;2023-08-24T03:45:29;10.63;;;2.65;;
41719;SDS011;27405;53.316;-6.294;2023-08-24T03:47:55;9.70;;;2.60;;
41719;SDS011;27405;53.316;-6.294;2023-08-24T03:50:22;8.40;;;2.47;;
41719;SDS011;27405;53.316;-6.294;2023-08-24T03:52:49;10.63;;;3.20;;
41719;SDS011;27405;53.316;-6.294;2023-08-24T03:55:16;13.85;;;3.10;;
41719;SDS011;27405;53.316;-6.294;2023-08-24T03:57:42;10.73;;;3.13;;
41719;SDS011;27405;53.316;-6.294;2023-08-24T04:00:08;11.43;;;2.90;;
41719;SDS011;27405;53.316;-6.294;2023-08-24T04:02:37;12.35;;;3.10;;
41719;SDS011;27405;53.316;-6.294;2023-08-24T04:05:03;13.73;;;3.00;;
41719;SDS011;27405;53.316;-6.294;2023-08-24T04:07:29;8.55;;;2.42;;
41719;SDS011;27405;53.316;-6.294;2023-08-24T04:09:56;10.70;;;2.72;;
41719;SDS011;27405;53.316;-6.294;2023-08-24T04:12:22;12.57;;;2.50;;
41719;SDS011;27405;53.316;-6.294;2023-08-24T04:14:48;10.90;;;2.85;;
41719;SDS011;27405;53.316;-6.294;2023-08-24T04:17:14;10.32;;;2.90;;
41719;SDS011;27405;53.316;-6.294;2023-08-24T04:19:40;9.88;;;3.42;;
41719;SDS011;27405;53.316;-6.294;2023-08-24T04:22:06;11.85;;;3.70;;
41719;SDS011;27405;53.316;-6.294;2023-08-24T04:24:32;11.52;;;3.53;;
41719;SDS011;27405;53.316;-6.294;2023-08-24T04:26:58;11.30;;;3.58;;
41719;SDS011;27405;53.316;-6.294;2023-08-24T04:32:46;9.40;;;3.03;;
41719;SDS011;27405;53.316;-6.294;2023-08-24T04:35:12;11.77;;;2.67;;
41719;SDS011;27405;53.316;-6.294;2023-08-24T04:37:38;10.77;;;3.40;;
41719;SDS011;27405;53.316;-6.294;2023-08-24T04:40:04;9.75;;;3.10;;
41719;SDS011;27405;53.316;-6.294;2023-08-24T04:42:32;9.93;;;2.70;;
41719;SDS011;27405;53.316;-6.294;2023-08-24T04:44:59;11.70;;;3.13;;
41719;SDS011;27405;53.316;-6.294;2023-08-24T04:47:25;9.95;;;2.53;;
41719;SDS011;27405;53.316;-6.294;2023-08-24T04:49:51;11.93;;;3.00;;
41719;SDS011;27405;53.316;-6.294;2023-08-24T04:52:17;17.92;;;3.65;;
41719;SDS011;27405;53.316;-6.294;2023-08-24T04:54:43;12.45;;;4.25;;
41719;SDS011;27405;53.316;-6.294;2023-08-24T04:57:09;15.23;;;4.80;;
41719;SDS011;27405;53.316;-6.294;2023-08-24T04:59:35;12.80;;;5.07;;
41719;SDS011;27405;53.316;-6.294;2023-08-24T05:02:01;17.63;;;5.32;;
41719;SDS011;27405;53.316;-6.294;2023-08-24T05:04:27;14.35;;;5.72;;
41719;SDS011;27405;53.316;-6.294;2023-08-24T05:06:52;17.75;;;6.32;;
41719;SDS011;27405;53.316;-6.294;2023-08-24T05:09:18;16.08;;;5.25;;
41719;SDS011;27405;53.316;-6.294;2023-08-24T05:11:44;14.13;;;4.07;;
41719;SDS011;27405;53.316;-6.294;2023-08-24T05:14:10;10.75;;;3.50;;
41719;SDS011;27405;53.316;-6.294;2023-08-24T05:16:38;11.55;;;3.40;;
41719;SDS011;27405;53.316;-6.294;2023-08-24T05:19:04;13.02;;;4.22;;
41719;SDS011;27405;53.316;-6.294;2023-08-24T05:21:30;12.15;;;3.42;;
41719;SDS011;27405;53.316;-6.294;2023-08-24T05:23:56;13.02;;;4.65;;
41719;SDS011;27405;53.316;-6.294;2023-08-24T05:26:22;13.25;;;5.25;;
41719;SDS011;27405;53.316;-6.294;2023-08-24T05:28:49;12.55;;;4.55;;
41719;SDS011;27405;53.316;-6.294;2023-08-24T05:31:15;12.95;;;4.32;;
41719;SDS011;27405;53.316;-6.294;2023-08-24T05:33:42;15.15;;;3.65;;
41719;SDS011;27405;53.316;-6.294;2023-08-24T05:36:08;17.60;;;4.20;;
41719;SDS011;27405;53.316;-6.294;2023-08-24T05:38:34;11.85;;;3.65;;
41719;SDS011;27405;53.316;-6.294;2023-08-24T05:41:00;15.00;;;3.67;;
41719;SDS011;27405;53.316;-6.294;2023-08-24T05:43:26;9.68;;;3.03;;
41719;SDS011;27405;53.316;-6.294;2023-08-24T05:45:52;15.85;;;3.97;;
41719;SDS011;27405;53.316;-6.294;2023-08-24T05:48:18;12.70;;;3.45;;
41719;SDS011;27405;53.316;-6.294;2023-08-24T05:50:44;14.50;;;3.42;;
41719;SDS011;27405;53.316;-6.294;2023-08-24T05:53:11;14.73;;;3.80;;
41719;SDS011;27405;53.316;-6.294;2023-08-24T05:55:38;11.65;;;3.30;;
41719;SDS011;27405;53.316;-6.294;2023-08-24T05:58:04;13.13;;;3.58;;
41719;SDS011;27405;53.316;-6.294;2023-08-24T06:00:30;12.27;;;3.40;;
41719;SDS011;27405;53.316;-6.294;2023-08-24T06:02:56;14.98;;;3.72;;
41719;SDS011;27405;53.316;-6.294;2023-08-24T06:05:22;9.02;;;3.30;;
41719;SDS011;27405;53.316;-6.294;2023-08-24T06:07:48;14.73;;;3.88;;
41719;SDS011;27405;53.316;-6.294;2023-08-24T06:10:14;10.80;;;3.47;;
41719;SDS011;27405;53.316;-6.294;2023-08-24T06:12:40;13.75;;;4.05;;
41719;SDS011;27405;53.316;-6.294;2023-08-24T06:15:06;12.85;;;4.07;;
41719;SDS011;27405;53.316;-6.294;2023-08-24T06:17:35;16.60;;;3.90;;
41719;SDS011;27405;53.316;-6.294;2023-08-24T06:20:04;14.35;;;4.25;;
41719;SDS011;27405;53.316;-6.294;2023-08-24T06:22:31;11.63;;;3.65;;
41719;SDS011;27405;53.316;-6.294;2023-08-24T06:24:56;12.75;;;4.40;;
41719;SDS011;27405;53.316;-6.294;2023-08-24T06:27:25;11.90;;;3.78;;
41719;SDS011;27405;53.316;-6.294;2023-08-24T06:29:52;12.65;;;3.78;;
41719;SDS011;27405;53.316;-6.294;2023-08-24T06:32:18;11.90;;;4.30;;
41719;SDS011;27405;53.316;-6.294;2023-08-24T06:34:44;13.45;;;4.90;;
41719;SDS011;27405;53.316;-6.294;2023-08-24T06:37:10;13.13;;;4.10;;
41719;SDS011;27405;53.316;-6.294;2023-08-24T06:39:36;16.05;;;4.72;;
41719;SDS011;27405;53.316;-6.294;2023-08-24T06:42:02;14.23;;;4.20;;
41719;SDS011;27405;53.316;-6.294;2023-08-24T06:44:28;16.05;;;4.25;;
41719;SDS011;27405;53.316;-6.294;2023-08-24T06:46:54;13.50;;;4.05;;
41719;SDS011;27405;53.316;-6.294;2023-08-24T06:52:42;15.32;;;5.05;;
41719;SDS011;27405;53.316;-6.294;2023-08-24T06:55:08;17.08;;;5.47;;
41719;SDS011;27405;53.316;-6.294;2023-08-24T06:57:35;15.82;;;5.03;;
41719;SDS011;27405;53.316;-6.294;2023-08-24T07:00:01;16.60;;;5.55;;
41719;SDS011;27405;53.316;-6.294;2023-08-24T07:02:31;17.80;;;5.03;;
41719;SDS011;27405;53.316;-6.294;2023-08-24T07:04:58;18.63;;;5.20;;
41719;SDS011;27405;53.316;-6.294;2023-08-24T07:07:24;16.08;;;5.18;;
41719;SDS011;27405;53.316;-6.294;2023-08-24T07:09:50;14.13;;;4.55;;
41719;SDS011;27405;53.316;-6.294;2023-08-24T07:12:17;18.05;;;5.47;;
41719;SDS011;27405;53.316;-6.294;2023-08-24T07:14:43;14.38;;;3.95;;
41719;SDS011;27405;53.316;-6.294;2023-08-24T07:17:09;16.85;;;4.53;;
41719;SDS011;27405;53.316;-6.294;2023-08-24T07:22:57;18.50;;;6.13;;
41719;SDS011;27405;53.316;-6.294;2023-08-24T07:25:23;19.27;;;7.00;;
41719;SDS011;27405;53.316;-6.294;2023-08-24T07:27:49;21.35;;;7.47;;
41719;SDS011;27405;53.316;-6.294;2023-08-24T07:30:15;19.55;;;6.68;;
41719;SDS011;27405;53.316;-6.294;2023-08-24T07:32:41;16.67;;;5.88;;
41719;SDS011;27405;53.316;-6.294;2023-08-24T07:35:07;12.15;;;4.60;;
41719;SDS011;27405;53.316;-6.294;2023-08-24T07:37:33;13.23;;;4.65;;
41719;SDS011;27405;53.316;-6.294;2023-08-24T07:39:59;15.43;;;4.57;;
41719;SDS011;27405;53.316;-6.294;2023-08-24T07:42:25;15.52;;;3.78;;
41719;SDS011;27405;53.316;-6.294;2023-08-24T07:44:51;15.27;;;4.30;;
41719;SDS011;27405;53.316;-6.294;2023-08-24T07:47:17;12.75;;;3.85;;
41719;SDS011;27405;53.316;-6.294;2023-08-24T07:49:43;12.30;;;3.17;;
41719;SDS011;27405;53.316;-6.294;2023-08-24T07:52:10;9.45;;;3.10;;
41719;SDS011;27405;53.316;-6.294;2023-08-24T07:54:37;17.38;;;3.22;;
41719;SDS011;27405;53.316;-6.294;2023-08-24T07:57:04;14.10;;;2.78;;
41719;SDS011;27405;53.316;-6.294;2023-08-24T07:59:30;16.55;;;2.22;;
41719;SDS011;27405;53.316;-6.294;2023-08-24T08:01:56;9.90;;;1.83;;
41719;SDS011;27405;53.316;-6.294;2023-08-24T08:04:22;8.60;;;1.85;;
41719;SDS011;27405;53.316;-6.294;2023-08-24T08:06:48;7.80;;;1.98;;
41719;SDS011;27405;53.316;-6.294;2023-08-24T08:09:14;7.88;;;1.75;;
41719;SDS011;27405;53.316;-6.294;2023-08-24T08:11:41;11.00;;;1.90;;
41719;SDS011;27405;53.316;-6.294;2023-08-24T08:14:08;6.15;;;1.50;;
41719;SDS011;27405;53.316;-6.294;2023-08-24T08:16:34;6.80;;;1.98;;
41719;SDS011;27405;53.316;-6.294;2023-08-24T08:19:01;9.80;;;1.92;;
41719;SDS011;27405;53.316;-6.294;2023-08-24T08:21:27;7.63;;;1.98;;
41719;SDS011;27405;53.316;-6.294;2023-08-24T08:23:54;9.23;;;1.95;;
41719;SDS011;27405;53.316;-6.294;2023-08-24T08:26:20;9.43;;;1.70;;
41719;SDS011;27405;53.316;-6.294;2023-08-24T08:28:46;9.20;;;1.92;;
41719;SDS011;27405;53.316;-6.294;2023-08-24T08:31:12;13.85;;;2.10;;
41719;SDS011;27405;53.316;-6.294;2023-08-24T08:33:38;8.55;;;1.83;;
41719;SDS011;27405;53.316;-6.294;2023-08-24T08:36:04;7.82;;;1.50;;
41719;SDS011;27405;53.316;-6.294;2023-08-24T08:38:30;17.90;;;2.40;;
41719;SDS011;27405;53.316;-6.294;2023-08-24T08:40:58;10.13;;;1.80;;
41719;SDS011;27405;53.316;-6.294;2023-08-24T08:43:28;10.50;;;1.92;;
41719;SDS011;27405;53.316;-6.294;2023-08-24T08:45:55;8.20;;;1.70;;
41719;SDS011;27405;53.316;-6.294;2023-08-24T08:48:21;6.85;;;1.40;;
41719;SDS011;27405;53.316;-6.294;2023-08-24T08:50:51;7.53;;;1.50;;
41719;SDS011;27405;53.316;-6.294;2023-08-24T08:53:24;8.18;;;1.85;;
41719;SDS011;27405;53.316;-6.294;2023-08-24T08:55:54;10.38;;;1.70;;
41719;SDS011;27405;53.316;-6.294;2023-08-24T09:01:44;10.63;;;1.45;;
41719;SDS011;27405;53.316;-6.294;2023-08-24T09:04:12;9.33;;;1.40;;
41719;SDS011;27405;53.316;-6.294;2023-08-24T09:06:38;11.50;;;2.10;;
41719;SDS011;27405;53.316;-6.294;2023-08-24T09:09:05;8.75;;;1.75;;
41719;SDS011;27405;53.316;-6.294;2023-08-24T09:14:53;7.25;;;1.88;;
41719;SDS011;27405;53.316;-6.294;2023-08-24T09:17:22;6.45;;;1.45;;
41719;SDS011;27405;53.316;-6.294;2023-08-24T09:19:49;8.75;;;1.52;;
41719;SDS011;27405;53.316;-6.294;2023-08-24T09:22:19;10.25;;;1.70;;
41719;SDS011;27405;53.316;-6.294;2023-08-24T09:24:48;9.35;;;1.67;;
41719;SDS011;27405;53.316;-6.294;2023-08-24T09:27:20;9.13;;;1.58;;
41719;SDS011;27405;53.316;-6.294;2023-08-24T09:29:47;7.80;;;1.50;;
41719;SDS011;27405;53.316;-6.294;2023-08-24T09:32:15;7.38;;;1.60;;
41719;SDS011;27405;53.316;-6.294;2023-08-24T09:34:47;10.48;;;1.60;;
41719;SDS011;27405;53.316;-6.294;2023-08-24T09:37:14;9.18;;;1.85;;
41719;SDS011;27405;53.316;-6.294;2023-08-24T09:39:40;6.05;;;1.25;;
41719;SDS011;27405;53.316;-6.294;2023-08-24T09:42:07;7.13;;;1.30;;
41719;SDS011;27405;53.316;-6.294;2023-08-24T09:44:33;11.15;;;1.98;;
41719;SDS011;27405;53.316;-6.294;2023-08-24T09:46:59;8.70;;;1.50;;
41719;SDS011;27405;53.316;-6.294;2023-08-24T09:49:25;9.18;;;1.60;;
41719;SDS011;27405;53.316;-6.294;2023-08-24T09:51:56;7.32;;;1.55;;
41719;SDS011;27405;53.316;-6.294;2023-08-24T09:54:27;9.52;;;1.50;;
41719;SDS011;27405;53.316;-6.294;2023-08-24T09:56:56;5.78;;;1.63;;
41719;SDS011;27405;53.316;-6.294;2023-08-24T09:59:25;11.80;;;1.80;;
41719;SDS011;27405;53.316;-6.294;2023-08-24T10:01:53;5.20;;;1.40;;
41719;SDS011;27405;53.316;-6.294;2023-08-24T10:04:23;7.53;;;1.38;;
41719;SDS011;27405;53.316;-6.294;2023-08-24T10:06:55;4.53;;;1.20;;
41719;SDS011;27405;53.316;-6.294;2023-08-24T10:10:07;10.77;;;1.48;;
41719;SDS011;27405;53.316;-6.294;2023-08-24T10:12:18;4.75;;;1.10;;
41719;SDS011;27405;53.316;-6.294;2023-08-24T10:14:53;7.25;;;1.20;;
41719;SDS011;27405;53.316;-6.294;2023-08-24T10:17:26;9.00;;;1.60;;
41719;SDS011;27405;53.316;-6.294;2023-08-24T10:19:53;7.28;;;1.20;;
41719;SDS011;27405;53.316;-6.294;2023-08-24T10:22:21;3.83;;;0.90;;
41719;SDS011;27405;53.316;-6.294;2023-08-24T10:24:47;4.20;;;1.10;;
41719;SDS011;27405;53.316;-6.294;2023-08-24T10:27:14;6.70;;;1.13;;
41719;SDS011;27405;53.316;-6.294;2023-08-24T10:29:43;7.28;;;1.20;;
41719;SDS011;27405;53.316;-6.294;2023-08-24T10:32:09;8.13;;;1.30;;
41719;SDS011;27405;53.316;-6.294;2023-08-24T10:34:36;5.55;;;1.20;;
41719;SDS011;27405;53.316;-6.294;2023-08-24T10:37:11;7.63;;;1.10;;
41719;SDS011;27405;53.316;-6.294;2023-08-24T10:43:02;4.90;;;0.90;;
41719;SDS011;27405;53.316;-6.294;2023-08-24T10:48:24;5.13;;;1.23;;
41719;SDS011;27405;53.316;-6.294;2023-08-24T10:54:01;6.47;;;1.30;;
41719;SDS011;27405;53.316;-6.294;2023-08-24T10:56:37;3.50;;;1.10;;
41719;SDS011;27405;53.316;-6.294;2023-08-24T11:02:26;5.85;;;1.23;;
41719;SDS011;27405;53.316;-6.294;2023-08-24T11:05:05;7.78;;;1.33;;
41719;SDS011;27405;53.316;-6.294;2023-08-24T11:07:34;8.23;;;1.27;;
41719;SDS011;27405;53.316;-6.294;2023-08-24T11:10:08;3.92;;;1.30;;
41719;SDS011;27405;53.316;-6.294;2023-08-24T11:15:38;7.03;;;1.52;;
41719;SDS011;27405;53.316;-6.294;2023-08-24T11:20:48;4.40;;;0.90;;
41719;SDS011;27405;53.316;-6.294;2023-08-24T11:23:17;3.80;;;1.00;;
41719;SDS011;27405;53.316;-6.294;2023-08-24T11:25:45;6.65;;;1.17;;
41719;SDS011;27405;53.316;-6.294;2023-08-24T11:28:13;12.20;;;1.70;;
41719;SDS011;27405;53.316;-6.294;2023-08-24T11:30:43;5.45;;;1.30;;
41719;SDS011;27405;53.316;-6.294;2023-08-24T11:33:10;5.63;;;1.35;;
41719;SDS011;27405;53.316;-6.294;2023-08-24T11:38:10;9.48;;;1.42;;
41719;SDS011;27405;53.316;-6.294;2023-08-24T11:40:37;2.92;;;0.95;;
41719;SDS011;27405;53.316;-6.294;2023-08-24T11:43:04;4.35;;;1.08;;
41719;SDS011;27405;53.316;-6.294;2023-08-24T11:48:01;3.45;;;0.75;;
41719;SDS011;27405;53.316;-6.294;2023-08-24T11:50:30;2.70;;;0.73;;
41719;SDS011;27405;53.316;-6.294;2023-08-24T11:52:59;5.05;;;1.00;;
41719;SDS011;27405;53.316;-6.294;2023-08-24T11:55:26;5.15;;;1.10;;
41719;SDS011;27405;53.316;-6.294;2023-08-24T11:57:52;4.28;;;1.00;;
41719;SDS011;27405;53.316;-6.294;2023-08-24T12:00:20;3.03;;;0.70;;
41719;SDS011;27405;53.316;-6.294;2023-08-24T12:02:46;4.55;;;0.70;;
41719;SDS011;27405;53.316;-6.294;2023-08-24T12:05:31;4.45;;;0.85;;
41719;SDS011;27405;53.316;-6.294;2023-08-24T12:07:58;2.25;;;0.60;;
41719;SDS011;27405;53.316;-6.294;2023-08-24T12:10:24;5.22;;;1.00;;
41719;SDS011;27405;53.316;-6.294;2023-08-24T12:13:00;5.53;;;0.70;;
41719;SDS011;27405;53.316;-6.294;2023-08-24T12:15:36;4.00;;;1.08;;
41719;SDS011;27405;53.316;-6.294;2023-08-24T12:18:09;1.65;;;0.70;;
41719;SDS011;27405;53.316;-6.294;2023-08-24T12:20:42;1.10;;;0.60;;
41719;SDS011;27405;53.316;-6.294;2023-08-24T12:23:09;2.72;;;0.80;;
41719;SDS011;27405;53.316;-6.294;2023-08-24T12:25:42;3.58;;;0.95;;
41719;SDS011;27405;53.316;-6.294;2023-08-24T12:28:12;4.45;;;0.60;;
41719;SDS011;27405;53.316;-6.294;2023-08-24T12:30:50;2.80;;;0.90;;
41719;SDS011;27405;53.316;-6.294;2023-08-24T12:33:31;4.22;;;0.98;;
41719;SDS011;27405;53.316;-6.294;2023-08-24T12:35:57;2.63;;;0.70;;
41719;SDS011;27405;53.316;-6.294;2023-08-24T12:38:24;4.90;;;0.75;;
41719;SDS011;27405;53.316;-6.294;2023-08-24T12:40:53;4.15;;;0.80;;
41719;SDS011;27405;53.316;-6.294;2023-08-24T12:43:20;2.65;;;0.70;;
41719;SDS011;27405;53.316;-6.294;2023-08-24T12:45:46;4.05;;;0.80;;
41719;SDS011;27405;53.316;-6.294;2023-08-24T12:48:12;2.97;;;0.80;;
41719;SDS011;27405;53.316;-6.294;2023-08-24T12:50:38;2.53;;;0.93;;
41719;SDS011;27405;53.316;-6.294;2023-08-24T12:53:04;2.78;;;0.90;;
41719;SDS011;27405;53.316;-6.294;2023-08-24T12:55:34;3.17;;;0.73;;
41719;SDS011;27405;53.316;-6.294;2023-08-24T12:58:01;5.93;;;1.25;;
41719;SDS011;27405;53.316;-6.294;2023-08-24T13:00:28;4.05;;;0.88;;
41719;SDS011;27405;53.316;-6.294;2023-08-24T13:02:55;4.03;;;1.00;;
41719;SDS011;27405;53.316;-6.294;2023-08-24T13:05:21;4.05;;;1.30;;
41719;SDS011;27405;53.316;-6.294;2023-08-24T13:07:48;5.07;;;0.82;;
41719;SDS011;27405;53.316;-6.294;2023-08-24T13:10:14;3.63;;;0.80;;
41719;SDS011;27405;53.316;-6.294;2023-08-24T13:12:40;4.07;;;0.80;;
41719;SDS011;27405;53.316;-6.294;2023-08-24T13:15:06;3.45;;;0.80;;
41719;SDS011;27405;53.316;-6.294;2023-08-24T13:17:33;1.73;;;0.73;;
41719;SDS011;27405;53.316;-6.294;2023-08-24T13:19:58;7.30;;;0.90;;
41719;SDS011;27405;53.316;-6.294;2023-08-24T13:22:24;2.20;;;0.52;;
41719;SDS011;27405;53.316;-6.294;2023-08-24T13:24:50;3.22;;;0.60;;
41719;SDS011;27405;53.316;-6.294;2023-08-24T13:27:16;5.60;;;0.73;;
41719;SDS011;27405;53.316;-6.294;2023-08-24T13:29:42;4.45;;;0.82;;
41719;SDS011;27405;53.316;-6.294;2023-08-24T13:32:09;6.40;;;0.73;;
41719;SDS011;27405;53.316;-6.294;2023-08-24T13:34:36;2.78;;;0.85;;
41719;SDS011;27405;53.316;-6.294;2023-08-24T13:37:02;4.35;;;1.10;;
41719;SDS011;27405;53.316;-6.294;2023-08-24T13:39:29;3.47;;;1.10;;
41719;SDS011;27405;53.316;-6.294;2023-08-24T13:41:56;7.03;;;0.88;;
41719;SDS011;27405;53.316;-6.294;2023-08-24T13:44:22;9.20;;;1.40;;
41719;SDS011;27405;53.316;-6.294;2023-08-24T13:46:48;2.97;;;0.95;;
41719;SDS011;27405;53.316;-6.294;2023-08-24T13:49:15;2.70;;;0.95;;
41719;SDS011;27405;53.316;-6.294;2023-08-24T13:51:42;3.53;;;1.00;;
41719;SDS011;27405;53.316;-6.294;2023-08-24T13:54:17;2.33;;;1.15;;
41719;SDS011;27405;53.316;-6.294;2023-08-24T13:56:46;4.15;;;0.90;;
41719;SDS011;27405;53.316;-6.294;2023-08-24T13:59:14;2.80;;;0.88;;
41719;SDS011;27405;53.316;-6.294;2023-08-24T14:01:40;2.80;;;0.77;;
41719;SDS011;27405;53.316;-6.294;2023-08-24T14:04:07;3.55;;;0.77;;
41719;SDS011;27405;53.316;-6.294;2023-08-24T14:06:33;3.85;;;0.88;;
41719;SDS011;27405;53.316;-6.294;2023-08-24T14:09:01;1.47;;;0.80;;
41719;SDS011;27405;53.316;-6.294;2023-08-24T14:11:28;3.88;;;0.90;;
41719;SDS011;27405;53.316;-6.294;2023-08-24T14:13:54;2.75;;;0.60;;
41719;SDS011;27405;53.316;-6.294;2023-08-24T14:16:20;2.40;;;0.77;;
41719;SDS011;27405;53.316;-6.294;2023-08-24T14:18:46;2.15;;;0.70;;
41719;SDS011;27405;53.316;-6.294;2023-08-24T14:21:13;2.65;;;0.90;;
41719;SDS011;27405;53.316;-6.294;2023-08-24T14:23:40;2.40;;;0.68;;
41719;SDS011;27405;53.316;-6.294;2023-08-24T14:26:06;2.53;;;0.98;;
41719;SDS011;27405;53.316;-6.294;2023-08-24T14:28:49;3.78;;;1.20;;
41719;SDS011;27405;53.316;-6.294;2023-08-24T14:31:17;5.70;;;1.83;;
41719;SDS011;27405;53.316;-6.294;2023-08-24T14:33:43;3.58;;;0.77;;
41719;SDS011;27405;53.316;-6.294;2023-08-24T14:36:09;4.28;;;0.80;;
41719;SDS011;27405;53.316;-6.294;2023-08-24T14:38:39;5.03;;;1.20;;
41719;SDS011;27405;53.316;-6.294;2023-08-24T14:41:06;3.55;;;0.80;;
41719;SDS011;27405;53.316;-6.294;2023-08-24T14:43:34;1.92;;;0.70;;
41719;SDS011;27405;53.316;-6.294;2023-08-24T14:46:00;5.72;;;0.88;;
41719;SDS011;27405;53.316;-6.294;2023-08-24T14:48:26;5.15;;;1.00;;
41719;SDS011;27405;53.316;-6.294;2023-08-24T14:50:52;4.50;;;0.85;;
41719;SDS011;27405;53.316;-6.294;2023-08-24T14:53:18;3.28;;;0.90;;
41719;SDS011;27405;53.316;-6.294;2023-08-24T14:55:44;1.45;;;0.63;;
41719;SDS011;27405;53.316;-6.294;2023-08-24T14:58:10;2.97;;;0.98;;
41719;SDS011;27405;53.316;-6.294;2023-08-24T15:00:38;3.65;;;0.90;;
41719;SDS011;27405;53.316;-6.294;2023-08-24T15:03:04;3.05;;;1.00;;
41719;SDS011;27405;53.316;-6.294;2023-08-24T15:05:30;2.08;;;0.80;;
41719;SDS011;27405;53.316;-6.294;2023-08-24T15:07:56;5.72;;;1.13;;
41719;SDS011;27405;53.316;-6.294;2023-08-24T15:10:22;3.65;;;0.88;;
41719;SDS011;27405;53.316;-6.294;2023-08-24T15:12:48;4.13;;;0.90;;
41719;SDS011;27405;53.316;-6.294;2023-08-24T15:18:36;3.25;;;0.85;;
41719;SDS011;27405;53.316;-6.294;2023-08-24T15:21:02;3.30;;;1.02;;
41719;SDS011;27405;53.316;-6.294;2023-08-24T15:23:30;4.10;;;0.90;;
41719;SDS011;27405;53.316;-6.294;2023-08-24T15:26:00;1.65;;;0.82;;
41719;SDS011;27405;53.316;-6.294;2023-08-24T15:28:34;3.22;;;0.80;;
41719;SDS011;27405;53.316;-6.294;2023-08-24T15:31:01;3.15;;;0.98;;
41719;SDS011;27405;53.316;-6.294;2023-08-24T15:36:49;2.63;;;0.90;;
41719;SDS011;27405;53.316;-6.294;2023-08-24T15:42:37;4.10;;;0.90;;